createdAt,value
2022-08-05T00:02:07.200Z,18.73
2022-08-05T00:04:38.273Z,18.29
2022-08-05T00:07:58.729Z,18.29
2022-08-05T00:10:00.122Z,18.40
2022-08-05T00:12:28.168Z,19.16
2022-08-05T00:14:57.454Z,18.95
2022-08-05T00:17:27.172Z,18.58
2022-08-05T00:20:02.181Z,18.64
2022-08-05T00:22:32.909Z,18.72
2022-08-05T00:25:02.833Z,18.81
2022-08-05T00:27:38.260Z,18.50
2022-08-05T00:30:14.405Z,18.52
2022-08-05T00:32:44.171Z,18.58
2022-08-05T00:35:17.058Z,18.22
2022-08-05T00:37:53.414Z,18.39
2022-08-05T00:40:29.012Z,18.52
2022-08-05T00:43:01.606Z,18.00
2022-08-05T00:45:42.891Z,18.13
2022-08-05T00:48:15.655Z,18.30
2022-08-05T00:50:47.539Z,18.16
2022-08-05T00:54:00.680Z,18.12
2022-08-05T00:56:09.412Z,18.21
2022-08-05T00:58:37.810Z,18.40
2022-08-05T01:01:12.538Z,18.06
2022-08-05T01:03:40.946Z,18.00
2022-08-05T01:06:14.170Z,18.39
2022-08-05T01:08:47.548Z,18.53
2022-08-05T01:11:22.100Z,18.44
2022-08-05T01:14:03.297Z,18.01
2022-08-05T01:16:39.606Z,17.83
2022-08-05T01:19:56.116Z,17.78
2022-08-05T01:22:31.824Z,18.35
2022-08-05T01:25:39.595Z,18.48
2022-08-05T01:28:27.581Z,18.51
2022-08-05T01:31:03.105Z,18.00
2022-08-05T01:33:36.048Z,18.17
2022-08-05T01:36:16.004Z,18.44
2022-08-05T01:38:49.688Z,17.91
2022-08-05T01:41:25.893Z,17.78
2022-08-05T01:43:56.381Z,17.83
2022-08-05T01:46:43.051Z,17.73
2022-08-05T01:49:24.338Z,17.76
2022-08-05T01:52:01.084Z,17.52
2022-08-05T01:54:33.885Z,17.32
2022-08-05T01:58:29.870Z,17.42
2022-08-05T02:00:13.696Z,18.32
2022-08-05T02:02:55.218Z,18.26
2022-08-05T02:05:29.357Z,17.88
2022-08-05T02:08:01.997Z,18.35
2022-08-05T02:10:35.801Z,18.33
2022-08-05T02:13:16.548Z,18.58
2022-08-05T02:15:51.222Z,18.63
2022-08-05T02:18:35.009Z,18.09
2022-08-05T02:21:15.024Z,18.12
2022-08-05T02:23:49.632Z,18.63
2022-08-05T02:26:23.075Z,18.50
2022-08-05T02:28:59.458Z,18.51
2022-08-05T02:31:34.949Z,18.27
2022-08-05T02:34:11.657Z,18.68
2022-08-05T02:36:45.084Z,18.83
2022-08-05T02:39:22.528Z,18.50
2022-08-05T02:42:00.376Z,18.84
2022-08-05T02:44:35.020Z,18.97
2022-08-05T02:47:06.939Z,18.42
2022-08-05T02:49:40.835Z,18.30
2022-08-05T02:52:25.924Z,18.43
2022-08-05T02:55:05.669Z,18.85
2022-08-05T02:58:09.415Z,18.71
2022-08-05T03:00:32.989Z,18.80
2022-08-05T03:03:07.649Z,18.81
2022-08-05T03:06:53.576Z,18.78
2022-08-05T03:08:32.078Z,19.07
2022-08-05T03:11:56.702Z,18.91
2022-08-05T03:14:03.153Z,18.54
2022-08-05T03:16:35.822Z,18.73
2022-08-05T03:19:12.593Z,18.64
2022-08-05T03:21:49.852Z,18.46
2022-08-05T03:24:27.550Z,18.97
2022-08-05T03:27:02.985Z,18.90
2022-08-05T03:29:59.596Z,18.88
2022-08-05T03:32:30.897Z,18.94
2022-08-05T03:35:01.052Z,19.20
2022-08-05T03:37:45.806Z,19.11
2022-08-05T03:40:15.521Z,19.17
2022-08-05T03:42:56.581Z,19.25
2022-08-05T03:45:25.906Z,19.23
2022-08-05T03:47:56.809Z,19.17
2022-08-05T03:50:46.016Z,19.24
2022-08-05T03:55:00.074Z,19.14
2022-08-05T03:56:18.009Z,19.13
2022-08-05T03:59:04.458Z,19.09
2022-08-05T04:01:42.771Z,19.10
2022-08-05T04:04:14.869Z,19.29
2022-08-05T04:06:54.697Z,19.21
2022-08-05T04:09:26.296Z,19.26
2022-08-05T04:11:59.624Z,19.22
2022-08-05T04:14:30.296Z,19.34
2022-08-05T04:17:03.308Z,19.37
2022-08-05T04:19:43.317Z,19.25
2022-08-05T04:22:20.557Z,19.39
2022-08-05T04:24:52.632Z,19.38
2022-08-05T04:27:33.307Z,19.43
2022-08-05T04:30:13.259Z,19.18
2022-08-05T04:32:53.006Z,19.23
2022-08-05T04:35:21.912Z,19.23
2022-08-05T04:38:02.650Z,19.15
2022-08-05T04:40:36.104Z,19.16
2022-08-05T04:43:06.386Z,19.18
2022-08-05T04:45:48.151Z,19.23
2022-08-05T04:48:28.061Z,18.98
2022-08-05T04:51:03.593Z,18.97
2022-08-05T04:53:42.343Z,18.88
2022-08-05T04:56:32.912Z,19.14
2022-08-05T04:58:59.918Z,19.25
2022-08-05T05:02:07.094Z,19.26
2022-08-05T05:04:35.773Z,19.06
2022-08-05T05:07:09.496Z,18.80
2022-08-05T05:09:38.951Z,18.53
2022-08-05T05:12:09.032Z,18.61
2022-08-05T05:14:49.265Z,18.54
2022-08-05T05:17:23.388Z,18.53
2022-08-05T05:19:55.016Z,18.84
2022-08-05T05:22:26.998Z,19.07
2022-08-05T05:25:00.282Z,19.30
2022-08-05T05:27:41.225Z,19.13
2022-08-05T05:30:29.237Z,19.20
2022-08-05T05:33:01.014Z,19.14
2022-08-05T05:35:39.565Z,19.04
2022-08-05T05:38:13.112Z,19.10
2022-08-05T05:40:49.772Z,19.13
2022-08-05T05:43:54.267Z,19.09
2022-08-05T05:46:18.133Z,19.06
2022-08-05T05:48:48.659Z,19.08
2022-08-05T05:51:24.240Z,19.32
2022-08-05T05:53:59.527Z,19.38
2022-08-05T05:56:34.741Z,19.47
2022-08-05T05:59:05.896Z,19.68
2022-08-05T06:01:37.995Z,19.95
2022-08-05T06:04:11.844Z,20.31
2022-08-05T06:06:47.805Z,20.55
2022-08-05T06:09:25.858Z,20.62
2022-08-05T06:12:12.142Z,20.73
2022-08-05T06:14:48.470Z,20.92
2022-08-05T06:17:24.488Z,20.94
2022-08-05T06:20:01.637Z,20.93
2022-08-05T06:22:34.021Z,21.00
2022-08-05T06:25:59.717Z,20.98
2022-08-05T06:28:10.719Z,20.96
2022-08-05T06:30:42.947Z,21.13
2022-08-05T06:33:12.953Z,21.41
2022-08-05T06:36:07.685Z,21.62
2022-08-05T06:38:39.049Z,21.77
2022-08-05T06:41:17.240Z,21.88
2022-08-05T06:43:57.633Z,22.01
2022-08-05T06:46:30.624Z,22.37
2022-08-05T06:49:01.365Z,22.71
2022-08-05T06:51:30.725Z,22.96
2022-08-05T06:53:59.879Z,23.32
2022-08-05T06:56:34.365Z,23.63
2022-08-05T06:59:09.730Z,23.89
2022-08-05T07:01:40.780Z,24.12
2022-08-05T07:04:13.958Z,24.23
2022-08-05T07:06:44.224Z,24.58
2022-08-05T07:09:12.027Z,24.64
2022-08-05T07:11:43.068Z,24.49
2022-08-05T07:14:38.321Z,24.57
2022-08-05T07:17:56.321Z,24.94
2022-08-05T07:20:31.396Z,25.39
2022-08-05T07:22:47.832Z,25.49
2022-08-05T07:25:55.601Z,25.36
2022-08-05T07:28:11.654Z,24.79
2022-08-05T07:30:43.298Z,24.90
2022-08-05T07:33:18.278Z,25.24
2022-08-05T07:36:01.995Z,25.52
2022-08-05T07:38:43.217Z,25.78
2022-08-05T07:41:35.245Z,25.41
2022-08-05T07:44:05.808Z,25.56
2022-08-05T07:46:46.717Z,25.98
2022-08-05T07:49:18.887Z,26.27
2022-08-05T07:51:53.171Z,26.22
2022-08-05T07:54:31.169Z,26.46
2022-08-05T07:57:16.854Z,26.37
2022-08-05T07:59:50.217Z,26.35
2022-08-05T08:02:19.471Z,26.72
2022-08-05T08:04:59.257Z,27.03
2022-08-05T08:07:28.403Z,26.68
2022-08-05T08:09:56.779Z,26.10
2022-08-05T08:12:33.376Z,25.89
2022-08-05T08:15:14.324Z,26.40
2022-08-05T08:17:52.886Z,26.31
2022-08-05T08:20:59.994Z,26.60
2022-08-05T08:24:00.407Z,26.80
2022-08-05T08:25:59.830Z,27.22
2022-08-05T08:28:36.566Z,26.79
2022-08-05T08:31:05.902Z,26.77
2022-08-05T08:33:36.141Z,26.88
2022-08-05T08:36:29.764Z,26.55
2022-08-05T08:38:55.498Z,25.87
2022-08-05T08:41:52.392Z,26.12
2022-08-05T08:45:19.143Z,26.60
2022-08-05T08:47:47.681Z,27.34
2022-08-05T08:50:30.935Z,27.48
2022-08-05T08:53:02.127Z,27.95
2022-08-05T08:56:03.003Z,28.05
2022-08-05T08:58:43.034Z,28.33
2022-08-05T09:01:16.017Z,28.40
2022-08-05T09:03:46.376Z,28.46
2022-08-05T09:06:21.377Z,28.22
2022-08-05T09:08:52.193Z,28.56
2022-08-05T09:11:51.322Z,28.30
2022-08-05T09:14:58.676Z,28.60
2022-08-05T09:17:00.990Z,28.82
2022-08-05T09:19:36.854Z,29.04
2022-08-05T09:22:30.733Z,28.67
2022-08-05T09:25:01.061Z,28.59
2022-08-05T09:28:04.049Z,28.47
2022-08-05T09:30:25.667Z,28.85
2022-08-05T09:33:05.070Z,29.26
2022-08-05T09:35:32.979Z,29.13
2022-08-05T09:38:16.439Z,28.89
2022-08-05T09:40:52.689Z,28.71
2022-08-05T09:43:42.193Z,28.49
2022-08-05T09:46:28.420Z,28.63
2022-08-05T09:49:07.576Z,28.95
2022-08-05T09:51:49.386Z,28.45
2022-08-05T09:54:32.252Z,28.57
2022-08-05T09:57:01.483Z,28.74
2022-08-05T09:59:35.203Z,28.85
2022-08-05T10:02:06.140Z,28.88
2022-08-05T10:04:39.639Z,29.01
2022-08-05T10:07:20.281Z,29.37
2022-08-05T10:10:13.749Z,29.19
2022-08-05T10:12:49.618Z,29.44
2022-08-05T10:15:22.870Z,29.74
2022-08-05T10:18:12.557Z,29.58
2022-08-05T10:20:48.043Z,28.91
2022-08-05T10:23:33.890Z,28.86
2022-08-05T10:26:14.465Z,28.86
2022-08-05T10:28:46.280Z,28.56
2022-08-05T10:32:48.712Z,28.45
2022-08-05T10:34:08.066Z,28.33
2022-08-05T10:36:37.319Z,27.90
2022-08-05T10:39:10.441Z,27.51
2022-08-05T10:41:48.778Z,27.86
2022-08-05T10:44:20.247Z,27.81
2022-08-05T10:46:54.105Z,28.44
2022-08-05T10:49:27.514Z,28.51
2022-08-05T10:52:05.409Z,28.56
2022-08-05T10:54:56.053Z,28.28
2022-08-05T10:57:34.006Z,28.56
2022-08-05T11:00:19.652Z,27.90
2022-08-05T11:03:26.006Z,27.50
2022-08-05T11:06:15.812Z,27.66
2022-08-05T11:09:45.224Z,27.54
2022-08-05T11:12:50.548Z,27.73
2022-08-05T11:15:59.235Z,27.53
2022-08-05T11:18:29.992Z,26.94
2022-08-05T11:21:02.200Z,26.55
2022-08-05T11:24:04.619Z,26.33
2022-08-05T11:26:33.422Z,26.28
2022-08-05T11:29:12.668Z,25.92
2022-08-05T11:31:57.571Z,25.80
2022-08-05T11:34:51.393Z,25.98
2022-08-05T11:38:30.622Z,25.83
2022-08-05T11:41:03.385Z,25.68
2022-08-05T11:44:04.897Z,25.67
2022-08-05T11:46:37.708Z,25.29
2022-08-05T11:49:13.375Z,25.26
2022-08-05T11:51:49.347Z,25.40
2022-08-05T11:54:33.737Z,25.09
2022-08-05T11:57:08.700Z,25.15
2022-08-05T11:59:54.808Z,25.08
2022-08-05T12:02:32.788Z,24.91
2022-08-05T12:05:07.728Z,24.97
2022-08-05T12:08:03.275Z,24.91
2022-08-05T12:10:39.005Z,24.72
2022-08-05T12:13:16.428Z,24.56
2022-08-05T12:15:49.848Z,23.98
2022-08-05T12:18:20.781Z,23.99
2022-08-05T12:20:52.390Z,23.61
2022-08-05T12:23:20.398Z,23.44
2022-08-05T12:25:53.363Z,23.16
2022-08-05T12:28:35.095Z,23.83
2022-08-05T12:31:07.976Z,23.27
2022-08-05T12:33:39.654Z,23.04
2022-08-05T12:36:13.741Z,23.02
2022-08-05T12:38:46.437Z,22.91
2022-08-05T12:41:18.051Z,23.11
2022-08-05T12:43:56.317Z,22.86
2022-08-05T12:46:28.921Z,22.72
2022-08-05T12:49:00.266Z,22.93
2022-08-05T12:52:14.465Z,22.97
2022-08-05T12:54:26.688Z,22.83
2022-08-05T12:56:55.904Z,22.41
2022-08-05T12:59:46.402Z,22.28
2022-08-05T13:02:14.808Z,21.95
2022-08-05T13:04:54.392Z,21.62
2022-08-05T13:07:55.912Z,21.62
2022-08-05T13:10:19.931Z,21.65
2022-08-05T13:12:51.163Z,21.09
2022-08-05T13:15:35.915Z,20.41
2022-08-05T13:18:18.760Z,20.27
2022-08-05T13:20:51.016Z,20.68
2022-08-05T13:23:22.468Z,20.32
2022-08-05T13:25:59.258Z,20.03
2022-08-05T13:28:32.229Z,20.17
2022-08-05T13:31:10.947Z,20.32
2022-08-05T13:34:23.243Z,20.23
2022-08-05T13:36:36.735Z,20.47
2022-08-05T13:39:08.408Z,20.75
2022-08-05T13:41:54.807Z,20.63
2022-08-05T13:44:23.830Z,20.30
2022-08-05T13:47:02.467Z,20.23
2022-08-05T13:49:46.490Z,20.41
2022-08-05T13:52:29.478Z,20.99
2022-08-05T13:54:59.277Z,21.25
2022-08-05T13:57:51.548Z,20.73
2022-08-05T14:00:27.331Z,20.46
2022-08-05T14:02:56.193Z,20.64
2022-08-05T14:05:48.243Z,21.06
2022-08-05T14:08:21.421Z,21.13
2022-08-05T14:11:19.942Z,20.93
2022-08-05T14:13:48.427Z,20.29
2022-08-05T14:16:20.317Z,20.19
2022-08-05T14:19:13.493Z,20.49
2022-08-05T14:22:08.983Z,20.60
2022-08-05T14:24:31.633Z,20.72
2022-08-05T14:27:17.542Z,20.66
2022-08-05T14:29:46.134Z,20.66
2022-08-05T14:32:27.196Z,20.82
2022-08-05T14:34:57.004Z,21.18
2022-08-05T14:37:48.039Z,20.97
2022-08-05T14:40:18.178Z,20.68
2022-08-05T14:42:49.095Z,20.59
2022-08-05T14:45:17.103Z,20.57
2022-08-05T14:48:02.588Z,20.68
2022-08-05T14:50:39.837Z,20.71
2022-08-05T14:53:08.834Z,20.73
2022-08-05T14:55:41.925Z,20.76
2022-08-05T14:58:13.909Z,20.76
2022-08-05T15:00:59.457Z,20.97
2022-08-05T15:03:34.066Z,20.90
2022-08-05T15:06:15.171Z,20.90
2022-08-05T15:08:58.104Z,20.92
2022-08-05T15:11:53.286Z,20.95
2022-08-05T15:14:43.111Z,20.95
2022-08-05T15:17:45.738Z,20.90
2022-08-05T15:20:15.670Z,20.88
2022-08-05T15:22:54.179Z,20.90
2022-08-05T15:25:41.082Z,20.91
2022-08-05T15:28:18.382Z,20.94
2022-08-05T15:30:46.793Z,20.95
2022-08-05T15:34:04.376Z,20.92
2022-08-05T15:36:17.782Z,20.91
2022-08-05T15:39:07.605Z,21.01
2022-08-05T15:41:55.698Z,21.23
2022-08-05T15:44:30.806Z,21.31
2022-08-05T15:46:59.412Z,21.35
2022-08-05T15:49:55.337Z,21.51
2022-08-05T15:52:52.060Z,21.37
2022-08-05T15:55:10.374Z,21.28
2022-08-05T15:57:45.105Z,21.33
2022-08-05T16:00:25.983Z,21.36
2022-08-05T16:03:03.292Z,21.44
2022-08-05T16:05:31.391Z,21.43
2022-08-05T16:08:00.191Z,21.63
2022-08-05T16:10:30.403Z,21.51
2022-08-05T16:12:58.869Z,21.71
2022-08-05T16:15:32.493Z,21.76
2022-08-05T16:18:04.349Z,21.76
2022-08-05T16:20:37.356Z,21.72
2022-08-05T16:23:05.339Z,21.62
2022-08-05T16:25:36.889Z,21.44
2022-08-05T16:28:06.493Z,21.25
2022-08-05T16:30:39.249Z,21.29
2022-08-05T16:33:11.636Z,21.24
2022-08-05T16:35:44.656Z,21.23
2022-08-05T16:38:25.575Z,21.13
2022-08-05T16:41:01.305Z,20.96
2022-08-05T16:43:34.097Z,20.90
2022-08-05T16:46:24.017Z,21.18
2022-08-05T16:48:58.358Z,21.26
2022-08-05T16:51:31.053Z,21.17
2022-08-05T16:54:24.829Z,21.22
2022-08-05T16:56:58.759Z,21.11
2022-08-05T16:59:27.901Z,21.15
2022-08-05T17:02:02.364Z,21.02
2022-08-05T17:04:32.393Z,20.89
2022-08-05T17:07:03.115Z,20.77
2022-08-05T17:09:38.882Z,20.74
2022-08-05T17:12:51.059Z,20.56
2022-08-05T17:15:15.833Z,20.43
2022-08-05T17:17:55.079Z,20.50
2022-08-05T17:20:23.374Z,20.51
2022-08-05T17:22:55.790Z,20.58
2022-08-05T17:25:39.629Z,20.53
2022-08-05T17:28:09.285Z,20.34
2022-08-05T17:30:42.575Z,20.36
2022-08-05T17:33:22.118Z,20.28
2022-08-05T17:36:07.687Z,20.22
2022-08-05T17:38:39.899Z,20.33
2022-08-05T17:41:11.620Z,20.26
2022-08-05T17:43:56.603Z,20.22
2022-08-05T17:46:26.003Z,20.24
2022-08-05T17:48:55.942Z,20.18
2022-08-05T17:51:28.053Z,19.98
2022-08-05T17:54:08.136Z,20.09
2022-08-05T17:56:37.899Z,19.98
2022-08-05T17:59:05.751Z,19.83
2022-08-05T18:01:49.612Z,19.91
2022-08-05T18:04:21.058Z,20.08
2022-08-05T18:06:50.012Z,20.13
2022-08-05T18:09:18.095Z,19.91
2022-08-05T18:11:52.590Z,20.11
2022-08-05T18:14:20.888Z,20.12
2022-08-05T18:16:53.281Z,19.99
2022-08-05T18:19:25.855Z,20.06
2022-08-05T18:22:09.778Z,20.19
2022-08-05T18:24:40.282Z,20.11
2022-08-05T18:27:18.378Z,20.00
2022-08-05T18:29:51.910Z,20.01
2022-08-05T18:32:28.448Z,19.97
2022-08-05T18:34:59.195Z,19.92
2022-08-05T18:37:34.481Z,19.88
2022-08-05T18:41:49.974Z,19.89
2022-08-05T18:43:01.025Z,19.75
2022-08-05T18:45:41.875Z,19.72
2022-08-05T18:48:10.985Z,19.61
2022-08-05T18:51:01.623Z,19.68
2022-08-05T18:53:50.225Z,19.76
2022-08-05T18:56:21.731Z,19.68
2022-08-05T18:58:54.948Z,19.73
2022-08-05T19:01:47.760Z,19.68
2022-08-05T19:04:23.888Z,19.62
2022-08-05T19:06:53.978Z,19.39
2022-08-05T19:09:22.591Z,19.00
2022-08-05T19:12:00.327Z,19.12
2022-08-05T19:14:52.259Z,19.14
2022-08-05T19:17:23.823Z,19.13
2022-08-05T19:20:01.755Z,18.88
2022-08-05T19:22:32.673Z,19.07
2022-08-05T19:25:04.155Z,19.00
2022-08-05T19:27:36.687Z,18.74
2022-08-05T19:30:07.154Z,18.74
2022-08-05T19:32:38.073Z,18.80
2022-08-05T19:35:07.821Z,18.89
2022-08-05T19:38:06.187Z,18.90
2022-08-05T19:40:29.417Z,18.50
2022-08-05T19:43:05.039Z,18.50
2022-08-05T19:45:36.949Z,18.68
2022-08-05T19:48:05.852Z,18.72
2022-08-05T19:50:35.003Z,18.79
2022-08-05T19:53:09.298Z,18.66
2022-08-05T19:56:15.569Z,18.82
2022-08-05T19:58:30.469Z,18.48
2022-08-05T20:01:00.863Z,18.58
2022-08-05T20:03:38.795Z,18.16
2022-08-05T20:06:16.025Z,17.97
2022-08-05T20:09:06.063Z,17.48
2022-08-05T20:11:48.267Z,17.62
2022-08-05T20:14:26.767Z,17.59
2022-08-05T20:17:01.712Z,17.64
2022-08-05T20:19:36.209Z,17.74
2022-08-05T20:22:04.928Z,17.91
2022-08-05T20:24:34.408Z,17.46
2022-08-05T20:27:03.213Z,17.31
2022-08-05T20:29:57.910Z,17.56
2022-08-05T20:32:28.089Z,17.77
2022-08-05T20:34:58.359Z,17.77
2022-08-05T20:38:05.610Z,17.80
2022-08-05T20:40:19.797Z,17.86
2022-08-05T20:42:48.411Z,17.83
2022-08-05T20:45:16.408Z,17.50
2022-08-05T20:47:51.290Z,17.66
2022-08-05T20:50:19.902Z,17.67
2022-08-05T20:52:48.069Z,17.82
2022-08-05T20:56:07.213Z,17.58
2022-08-05T20:58:05.428Z,17.61
2022-08-05T21:00:44.386Z,17.51
2022-08-05T21:03:21.607Z,17.62
2022-08-05T21:05:53.680Z,17.58
2022-08-05T21:08:33.167Z,17.50
2022-08-05T21:11:15.272Z,17.65
2022-08-05T21:14:02.481Z,17.80
2022-08-05T21:16:36.872Z,17.84
2022-08-05T21:19:05.321Z,17.79
2022-08-05T21:21:43.849Z,17.69
2022-08-05T21:24:22.464Z,17.40
2022-08-05T21:26:56.148Z,17.33
2022-08-05T21:29:32.537Z,17.18
2022-08-05T21:32:08.882Z,17.17
2022-08-05T21:34:38.920Z,17.30
2022-08-05T21:37:09.297Z,17.30
2022-08-05T21:39:38.382Z,17.22
2022-08-05T21:42:30.691Z,17.54
2022-08-05T21:44:58.401Z,17.55
2022-08-05T21:47:54.836Z,17.61
2022-08-05T21:50:18.375Z,17.30
2022-08-05T21:52:50.365Z,17.42
2022-08-05T21:55:42.917Z,17.40
2022-08-05T21:58:12.180Z,17.37
2022-08-05T22:00:40.334Z,17.38
2022-08-05T22:03:16.486Z,17.09
2022-08-05T22:05:49.380Z,16.94
2022-08-05T22:08:24.250Z,17.19
2022-08-05T22:10:54.581Z,17.30
2022-08-05T22:14:32.385Z,17.30
2022-08-05T22:16:39.477Z,17.41
2022-08-05T22:19:15.058Z,17.36
2022-08-05T22:21:56.071Z,17.20
2022-08-05T22:24:53.434Z,16.96
2022-08-05T22:28:09.703Z,16.79
2022-08-05T22:30:35.798Z,16.78
2022-08-05T22:33:04.454Z,16.63
2022-08-05T22:35:49.257Z,17.05
2022-08-05T22:38:18.897Z,17.02
2022-08-05T22:40:55.230Z,16.75
2022-08-05T22:43:36.555Z,17.01
2022-08-05T22:46:13.285Z,16.93
2022-08-05T22:48:51.544Z,16.93
2022-08-05T22:51:23.243Z,16.97
2022-08-05T22:54:09.439Z,17.04
2022-08-05T22:56:41.367Z,16.97
2022-08-05T22:59:45.082Z,17.14
2022-08-05T23:02:06.129Z,17.20
2022-08-05T23:04:37.859Z,17.19
2022-08-05T23:07:06.964Z,17.23
2022-08-05T23:09:57.068Z,17.11
2022-08-05T23:12:29.003Z,16.40
2022-08-05T23:15:01.355Z,15.85
2022-08-05T23:17:37.869Z,15.75
2022-08-05T23:20:25.128Z,15.34
2022-08-05T23:22:58.801Z,15.05
2022-08-05T23:25:54.747Z,15.21
2022-08-05T23:28:19.254Z,14.93
2022-08-05T23:30:53.470Z,14.90
2022-08-05T23:34:05.690Z,15.11
2022-08-05T23:36:18.261Z,15.09
2022-08-05T23:38:49.032Z,15.22
2022-08-05T23:41:17.643Z,15.24
2022-08-05T23:44:04.626Z,15.01
2022-08-05T23:46:37.414Z,15.07
2022-08-05T23:49:15.859Z,15.10
2022-08-05T23:52:05.713Z,14.84
2022-08-05T23:54:38.630Z,14.93
2022-08-05T23:57:09.529Z,14.87
